Time;durP1;ratioP1;P1;durP2;ratioP2;P2;SDS_P1;SDS_P2;PMS_P1;PMS_P2;Temp;Humidity;BMP_temperature;BMP_pressure;BME280_temperature;BME280_humidity;BME280_pressure;Samples;Min_cycle;Max_cycle;Signal;HPM_P1;HPM_P2
2021/05/01 00:01:16;;;;;;;17.83;16.23;;;12.50;33.80;;;;;;10407293;28;20315;-76
2021/05/01 00:06:19;;;;;;;17.37;15.83;;;12.50;33.70;;;;;;10414442;28;20701;-76
2021/05/01 00:11:23;;;;;;;18.80;17.10;;;12.40;33.60;;;;;;10402054;28;21348;-76
2021/05/01 00:16:25;;;;;;;18.07;16.47;;;12.30;34.40;;;;;;10406107;28;20753;-76
2021/05/01 00:21:28;;;;;;;17.23;15.73;;;12.20;34.20;;;;;;10395836;28;20249;-76
2021/05/01 00:26:31;;;;;;;20.60;18.60;;;12.10;34.00;;;;;;10418940;28;20316;-76
2021/05/01 00:31:35;;;;;;;18.47;16.83;;;12.00;34.70;;;;;;10417941;28;20245;-76
2021/05/01 00:36:37;;;;;;;19.90;18.13;;;11.90;34.30;;;;;;10422731;28;20233;-76
2021/05/01 00:41:40;;;;;;;18.30;16.70;;;11.80;34.60;;;;;;10390725;28;20226;-75
2021/05/01 00:46:43;;;;;;;19.83;18.10;;;11.70;35.00;;;;;;10403008;28;20791;-76
2021/05/01 00:51:45;;;;;;;19.77;18.00;;;11.70;35.00;;;;;;10402367;28;20237;-75
2021/05/01 00:56:49;;;;;;;19.70;17.90;;;11.60;35.20;;;;;;10404631;28;20230;-75
2021/05/01 01:01:54;;;;;;;18.90;17.30;;;11.60;35.70;;;;;;10411537;28;20249;-76
2021/05/01 01:06:57;;;;;;;18.77;17.10;;;11.60;35.80;;;;;;10404898;28;20770;-75
2021/05/01 01:12:00;;;;;;;19.23;17.33;;;11.70;35.30;;;;;;10398149;28;20322;-76
2021/05/01 01:17:04;;;;;;;20.47;18.57;;;11.70;35.40;;;;;;10408472;28;20257;-76
2021/05/01 01:22:17;;;;;;;19.27;17.57;;;11.70;35.40;;;;;;10406484;28;20271;-77
2021/05/01 01:27:20;;;;;;;17.07;15.57;;;11.70;36.90;;;;;;10402354;28;20776;-76
2021/05/01 01:32:22;;;;;;;17.77;16.07;;;11.70;35.40;;;;;;10418002;28;20321;-76
2021/05/01 01:37:25;;;;;;;19.20;17.33;;;11.70;35.40;;;;;;10397172;28;20241;-76
2021/05/01 01:42:28;;;;;;;19.00;17.30;;;11.80;35.80;;;;;;10397153;28;20646;-77
2021/05/01 01:47:30;;;;;;;17.17;15.57;;;11.90;35.60;;;;;;10411474;28;20566;-76
2021/05/01 01:52:36;;;;;;;16.37;14.87;;;11.90;35.50;;;;;;10404390;28;20671;-76
2021/05/01 01:57:38;;;;;;;19.53;17.73;;;11.90;35.60;;;;;;10411637;28;20257;-76
2021/05/01 02:02:41;;;;;;;18.50;16.77;;;11.90;35.50;;;;;;10402249;28;20328;-76
2021/05/01 02:07:45;;;;;;;18.50;16.80;;;11.90;35.50;;;;;;10404057;28;20752;-76
2021/05/01 02:12:47;;;;;;;19.43;17.70;;;11.90;35.60;;;;;;10401614;28;20317;-76
2021/05/01 02:17:51;;;;;;;19.27;17.50;;;11.90;35.60;;;;;;10401092;28;20254;-76
2021/05/01 02:22:56;;;;;;;20.20;18.30;;;11.90;35.60;;;;;;10398769;28;20226;-75
2021/05/01 02:27:59;;;;;;;20.33;18.43;;;11.90;35.80;;;;;;10408737;28;20254;-76
2021/05/01 02:33:01;;;;;;;21.43;19.47;;;11.80;35.50;;;;;;10408480;28;20245;-76
2021/05/01 02:38:04;;;;;;;19.40;17.60;;;11.90;35.70;;;;;;10395558;28;20609;-76
2021/05/01 02:43:08;;;;;;;19.73;17.93;;;11.90;36.10;;;;;;10400611;28;20273;-76
2021/05/01 02:48:11;;;;;;;18.80;17.10;;;11.90;36.30;;;;;;10406945;28;20582;-75
2021/05/01 02:53:15;;;;;;;19.60;17.80;;;11.90;35.90;;;;;;10400916;28;20230;-76
2021/05/01 02:58:17;;;;;;;20.87;18.97;;;11.90;36.30;;;;;;10402532;28;20280;-76
2021/05/01 03:03:19;;;;;;;18.50;16.73;;;11.90;36.00;;;;;;10395188;28;20304;-75
2021/05/01 03:08:22;;;;;;;20.30;18.50;;;11.90;36.00;;;;;;10405340;28;20698;-76
2021/05/01 03:13:25;;;;;;;21.03;19.10;;;12.00;36.30;;;;;;10406138;28;20321;-75
2021/05/01 03:18:27;;;;;;;20.93;19.03;;;12.00;36.00;;;;;;10394211;28;20783;-76
2021/05/01 03:23:30;;;;;;;17.33;15.80;;;12.00;36.00;;;;;;10406242;28;20229;-75
2021/05/01 03:28:32;;;;;;;19.13;17.30;;;12.10;36.10;;;;;;10400528;28;20256;-76
2021/05/01 03:33:35;;;;;;;20.13;18.27;;;12.10;35.90;;;;;;10397095;28;20675;-76
2021/05/01 03:38:38;;;;;;;17.07;15.57;;;12.10;35.80;;;;;;10404108;28;20233;-76
2021/05/01 03:43:40;;;;;;;19.87;17.97;;;12.10;36.10;;;;;;10396879;28;20332;-75
2021/05/01 03:48:42;;;;;;;18.00;16.40;;;12.00;36.00;;;;;;10409144;28;20415;-76
2021/05/01 03:53:45;;;;;;;19.87;18.07;;;12.10;35.80;;;;;;10406873;28;20280;-76
2021/05/01 03:58:48;;;;;;;20.40;18.50;;;12.10;36.20;;;;;;10397003;28;20320;-76
2021/05/01 04:03:50;;;;;;;19.93;18.07;;;12.20;36.10;;;;;;10407925;28;20232;-76
2021/05/01 04:08:53;;;;;;;21.87;19.87;;;12.20;35.90;;;;;;10407268;28;20325;-76
2021/05/01 04:13:56;;;;;;;20.40;18.60;;;12.20;36.10;;;;;;10403172;28;20253;-76
2021/05/01 04:18:58;;;;;;;20.67;18.77;;;12.20;35.80;;;;;;10405747;28;20768;-76
2021/05/01 04:24:01;;;;;;;21.73;19.73;;;12.20;35.90;;;;;;10393118;28;20316;-76
2021/05/01 04:29:03;;;;;;;19.97;18.10;;;12.20;36.50;;;;;;10403871;28;20306;-76
2021/05/01 04:34:06;;;;;;;21.47;19.50;;;12.10;36.10;;;;;;10392798;28;20257;-77
2021/05/01 04:39:09;;;;;;;19.53;17.83;;;12.10;36.20;;;;;;10403018;28;20308;-76
2021/05/01 04:44:11;;;;;;;17.90;16.27;;;12.20;37.30;;;;;;10414334;28;20288;-76
2021/05/01 04:49:13;;;;;;;20.17;18.37;;;12.20;36.30;;;;;;10406609;28;20312;-76
2021/05/01 04:54:16;;;;;;;21.27;19.40;;;12.20;36.30;;;;;;10420785;28;20234;-76
2021/05/01 04:59:18;;;;;;;20.63;18.73;;;12.20;36.90;;;;;;10408272;28;20729;-77
2021/05/01 05:04:20;;;;;;;20.97;18.97;;;12.20;36.60;;;;;;10414119;28;20263;-78
2021/05/01 05:09:23;;;;;;;21.10;19.13;;;12.30;36.70;;;;;;10409963;28;20320;-76
2021/05/01 05:14:26;;;;;;;20.10;18.30;;;12.30;36.90;;;;;;10405185;28;20317;-75
2021/05/01 05:19:28;;;;;;;20.00;18.10;;;12.30;36.60;;;;;;10412636;28;20308;-76
2021/05/01 05:24:31;;;;;;;21.43;19.23;;;12.30;36.50;;;;;;10407207;28;20314;-76
2021/05/01 05:29:33;;;;;;;20.67;18.80;;;12.30;36.70;;;;;;10402091;28;20313;-76
2021/05/01 05:34:36;;;;;;;18.80;17.10;;;12.30;36.50;;;;;;10411575;28;20307;-76
2021/05/01 05:39:39;;;;;;;19.00;17.23;;;12.30;36.40;;;;;;10399559;28;20230;-76
2021/05/01 05:44:44;;;;;;;20.03;18.03;;;12.30;36.80;;;;;;10404523;28;20228;-77
2021/05/01 05:49:47;;;;;;;18.83;17.13;;;12.30;36.60;;;;;;10412849;28;20222;-76
2021/05/01 05:54:50;;;;;;;18.20;16.40;;;12.20;36.60;;;;;;10399085;28;20310;-76
2021/05/01 05:59:52;;;;;;;19.47;17.70;;;12.20;37.00;;;;;;10401432;28;20283;-76
2021/05/01 06:05:01;;;;;;;20.20;18.37;;;12.20;36.60;;;;;;10413699;28;20222;-76
2021/05/01 06:10:07;;;;;;;19.57;17.70;;;12.20;37.30;;;;;;10413545;28;20221;-76
2021/05/01 06:15:12;;;;;;;20.43;18.47;;;12.30;37.20;;;;;;10416016;28;20233;-76
2021/05/01 06:20:15;;;;;;;18.97;17.23;;;12.30;37.10;;;;;;10419248;28;20264;-77
2021/05/01 06:25:18;;;;;;;19.13;17.30;;;12.30;37.20;;;;;;10411170;28;20308;-76
2021/05/01 06:30:22;;;;;;;23.07;20.67;;;12.30;37.30;;;;;;10416819;28;20333;-76
2021/05/01 06:35:24;;;;;;;22.87;20.57;;;12.40;37.20;;;;;;10396962;28;20240;-75
2021/05/01 06:40:32;;;;;;;22.03;19.73;;;12.40;37.10;;;;;;10409190;28;20302;-75
2021/05/01 06:45:35;;;;;;;22.03;19.93;;;12.50;37.30;;;;;;10412300;28;20308;-75
2021/05/01 06:50:40;;;;;;;21.93;19.73;;;12.50;37.20;;;;;;10399240;28;20722;-74
2021/05/01 06:55:44;;;;;;;22.27;20.03;;;12.60;37.20;;;;;;10409685;28;20229;-75
2021/05/01 07:00:46;;;;;;;22.17;19.93;;;12.60;37.40;;;;;;10410017;28;20221;-75
2021/05/01 07:05:49;;;;;;;22.40;20.30;;;12.70;37.10;;;;;;10409696;28;20257;-75
2021/05/01 07:10:52;;;;;;;21.10;19.10;;;12.70;37.40;;;;;;10406811;28;20257;-75
2021/05/01 07:16:00;;;;;;;20.40;18.40;;;12.80;37.50;;;;;;10409436;28;20766;-75
2021/05/01 07:21:02;;;;;;;19.63;17.77;;;12.80;37.40;;;;;;10418170;28;20224;-75
2021/05/01 07:26:06;;;;;;;21.20;19.20;;;12.90;37.30;;;;;;10396018;28;20313;-76
2021/05/01 07:31:13;;;;;;;20.33;18.43;;;13.00;37.60;;;;;;10404997;28;20228;-75
2021/05/01 07:36:20;;;;;;;22.63;20.43;;;13.10;37.60;;;;;;10395058;28;20240;-75
2021/05/01 07:41:25;;;;;;;22.37;20.17;;;13.10;37.80;;;;;;10408241;28;20317;-76
2021/05/01 07:46:29;;;;;;;22.20;19.97;;;13.10;37.60;;;;;;10394694;28;20312;-77
2021/05/01 07:51:34;;;;;;;21.63;19.53;;;13.30;37.70;;;;;;10405370;28;20702;-77
2021/05/01 07:56:47;;;;;;;18.97;17.20;;;13.30;37.50;;;;;;10410875;28;20241;-77
2021/05/01 08:01:49;;;;;;;20.03;18.13;;;13.40;37.30;;;;;;10405024;28;20317;-73
2021/05/01 08:06:51;;;;;;;20.30;18.40;;;13.50;37.50;;;;;;10407113;28;20230;-74
2021/05/01 08:11:54;;;;;;;18.90;17.10;;;13.70;37.50;;;;;;10407676;28;20287;-75
2021/05/01 08:16:57;;;;;;;19.97;18.07;;;13.80;37.30;;;;;;10402028;28;20313;-75
2021/05/01 08:21:59;;;;;;;18.10;16.40;;;13.90;37.30;;;;;;10406580;28;20233;-76
2021/05/01 08:27:02;;;;;;;19.03;17.23;;;14.00;37.10;;;;;;10408100;28;20672;-76
2021/05/01 08:32:05;;;;;;;19.23;17.53;;;14.10;37.20;;;;;;10410522;28;20234;-76
2021/05/01 08:37:07;;;;;;;18.73;16.93;;;14.10;37.10;;;;;;10410198;28;20262;-76
2021/05/01 08:42:12;;;;;;;17.87;16.27;;;14.20;37.00;;;;;;10404456;28;20230;-76
2021/05/01 08:47:14;;;;;;;18.93;17.23;;;14.20;37.40;;;;;;10408292;28;20238;-76
2021/05/01 08:52:16;;;;;;;18.43;16.57;;;14.30;37.50;;;;;;10407475;28;20237;-76
2021/05/01 08:57:26;;;;;;;17.50;15.80;;;14.40;37.50;;;;;;10405561;28;20244;-76
2021/05/01 09:02:29;;;;;;;17.23;15.73;;;14.60;37.90;;;;;;10413224;28;20312;-76
2021/05/01 09:07:32;;;;;;;16.90;15.40;;;14.70;37.30;;;;;;10404991;28;20226;-78
2021/05/01 09:12:37;;;;;;;16.60;15.20;;;14.90;37.30;;;;;;10423522;28;20250;-78
2021/05/01 09:17:41;;;;;;;16.47;14.97;;;15.00;37.50;;;;;;10419306;28;20612;-76
2021/05/01 09:22:55;;;;;;;16.77;15.27;;;15.10;37.00;;;;;;10404252;28;20225;-77
2021/05/01 09:28:13;;;;;;;15.67;14.37;;;15.20;37.40;;;;;;10407215;28;20245;-77
2021/05/01 09:33:26;;;;;;;16.47;15.07;;;15.30;37.00;;;;;;10409707;28;20264;-77
2021/05/01 09:38:33;;;;;;;15.30;14.00;;;15.30;37.10;;;;;;10416085;28;20313;-77
2021/05/01 09:43:55;;;;;;;16.27;14.87;;;15.40;36.90;;;;;;10417694;28;20292;-77
2021/05/01 09:49:06;;;;;;;14.70;13.30;;;15.40;37.00;;;;;;10412995;28;20309;-78
2021/05/01 09:54:09;;;;;;;15.00;13.60;;;15.50;36.90;;;;;;10412674;28;20309;-77
2021/05/01 09:59:12;;;;;;;14.53;13.33;;;15.60;36.70;;;;;;10417810;28;20287;-78
2021/05/01 10:04:18;;;;;;;12.37;11.37;;;15.70;36.70;;;;;;10411898;28;20309;-78
2021/05/01 10:09:25;;;;;;;13.23;12.17;;;15.80;36.60;;;;;;10422795;28;20702;-78
2021/05/01 10:14:41;;;;;;;17.37;15.97;;;15.90;36.30;;;;;;10421838;28;20233;-78
2021/05/01 10:19:49;;;;;;;13.73;12.67;;;16.00;36.60;;;;;;10415990;28;20221;-79
2021/05/01 10:24:52;;;;;;;13.17;12.07;;;16.10;36.40;;;;;;10416022;28;20582;-78
2021/05/01 10:30:08;;;;;;;12.07;11.17;;;16.20;36.20;;;;;;10416424;28;20362;-77
2021/05/01 10:35:12;;;;;;;13.30;12.30;;;16.30;36.20;;;;;;10413704;28;20687;-77
2021/05/01 10:40:14;;;;;;;13.97;12.87;;;16.40;36.30;;;;;;10410312;28;20238;-77
2021/05/01 10:45:26;;;;;;;12.60;11.60;;;16.50;36.20;;;;;;10413776;28;20253;-76
2021/05/01 10:50:29;;;;;;;11.77;10.87;;;16.60;35.90;;;;;;10396689;28;20308;-78
2021/05/01 10:55:48;;;;;;;13.37;12.37;;;16.70;36.10;;;;;;10407557;28;20317;-77
2021/05/01 11:00:51;;;;;;;14.00;12.90;;;16.80;36.00;;;;;;10408089;28;20225;-78
2021/05/01 11:05:56;;;;;;;13.87;12.77;;;16.90;35.90;;;;;;10426821;28;20732;-78
2021/05/01 11:11:01;;;;;;;14.20;13.20;;;17.00;35.80;;;;;;10417351;28;20264;-78
2021/05/01 11:16:08;;;;;;;13.67;12.67;;;17.00;35.60;;;;;;10402696;28;20659;-78
2021/05/01 11:21:14;;;;;;;13.77;12.77;;;17.00;35.50;;;;;;10409284;28;20642;-78
2021/05/01 11:26:16;;;;;;;13.57;12.57;;;17.00;35.30;;;;;;10416061;28;20332;-77
2021/05/01 11:31:20;;;;;;;18.37;16.57;;;17.00;35.40;;;;;;10407594;28;20782;-78
2021/05/01 11:36:29;;;;;;;15.03;13.93;;;17.10;35.50;;;;;;10413874;28;20698;-77
2021/05/01 11:41:31;;;;;;;15.20;13.90;;;17.20;35.60;;;;;;10410779;28;20229;-78
2021/05/01 11:46:39;;;;;;;13.17;12.17;;;17.20;35.50;;;;;;10423205;28;20321;-77
2021/05/01 11:52:13;;;;;;;14.10;13.10;;;17.30;35.10;;;;;;10414211;28;20233;-78
2021/05/01 11:57:21;;;;;;;13.77;12.77;;;17.30;35.00;;;;;;10401528;28;20221;-78
2021/05/01 12:02:36;;;;;;;11.77;10.97;;;17.40;34.60;;;;;;10405352;28;20241;-77
2021/05/01 12:07:48;;;;;;;13.23;12.33;;;17.50;34.90;;;;;;10410852;28;20279;-76
2021/05/01 12:12:56;;;;;;;11.80;10.90;;;17.50;34.30;;;;;;10408858;28;20265;-76
2021/05/01 12:17:59;;;;;;;11.27;10.47;;;17.60;34.40;;;;;;10407765;28;20232;-77
2021/05/01 12:23:05;;;;;;;11.00;10.20;;;17.60;35.10;;;;;;10404447;28;20232;-77
2021/05/01 12:28:09;;;;;;;11.33;10.43;;;17.60;34.40;;;;;;10400381;28;20717;-76
2021/05/01 12:33:42;;;;;;;11.73;10.90;;;17.60;34.40;;;;;;10373371;28;20253;-76
2021/05/01 12:38:47;;;;;;;11.07;10.27;;;17.60;34.40;;;;;;10407431;28;20317;-76
2021/05/01 12:44:33;;;;;;;11.33;10.53;;;17.60;34.40;;;;;;10413715;28;20597;-76
2021/05/01 12:49:39;;;;;;;10.90;10.10;;;17.70;34.50;;;;;;10395614;28;20709;-75
2021/05/01 12:54:42;;;;;;;10.80;10.00;;;17.80;34.60;;;;;;10405586;28;20313;-75
2021/05/01 12:59:47;;;;;;;10.37;9.57;;;17.80;34.60;;;;;;10408520;28;20233;-78
2021/05/01 13:05:12;;;;;;;10.33;9.63;;;17.80;34.60;;;;;;10415395;28;20272;-78
2021/05/01 13:10:19;;;;;;;9.90;9.13;;;17.80;34.60;;;;;;10404408;28;20773;-77
2021/05/01 13:15:23;;;;;;;10.23;9.40;;;17.80;34.60;;;;;;10410491;28;20308;-78
2021/05/01 13:20:29;;;;;;;9.33;8.63;;;17.80;34.60;;;;;;10415032;28;20233;-78
2021/05/01 13:25:45;;;;;;;8.43;7.80;;;17.80;34.60;;;;;;10406293;28;20348;-78
2021/05/01 13:30:47;;;;;;;7.83;7.23;;;17.80;34.60;;;;;;10403201;28;20312;-79
2021/05/01 13:35:51;;;;;;;6.70;6.30;;;17.80;34.60;;;;;;10411978;28;20329;-78
2021/05/01 13:40:53;;;;;;;7.47;6.87;;;17.70;34.50;;;;;;10407965;28;20294;-78
2021/05/01 13:45:55;;;;;;;6.30;5.80;;;17.70;34.50;;;;;;10407224;28;20321;-78
2021/05/01 13:50:58;;;;;;;6.87;6.27;;;17.60;34.40;;;;;;10396938;28;20592;-78
2021/05/01 13:56:00;;;;;;;7.10;6.50;;;17.50;34.30;;;;;;10409127;28;20260;-78
2021/05/01 14:01:02;;;;;;;7.30;6.70;;;17.40;34.20;;;;;;10403080;28;20249;-77
2021/05/01 14:06:06;;;;;;;7.60;6.97;;;17.40;34.30;;;;;;10409399;28;20288;-79
2021/05/01 14:11:12;;;;;;;7.17;6.60;;;17.30;34.60;;;;;;10393870;28;20226;-78
2021/05/01 14:16:17;;;;;;;7.23;6.67;;;17.30;35.00;;;;;;10373757;28;20254;-77
2021/05/01 14:21:25;;;;;;;7.53;6.93;;;17.20;35.20;;;;;;10370052;28;20643;-77
2021/05/01 14:26:28;;;;;;;7.27;6.67;;;17.10;35.70;;;;;;10384390;28;20261;-77
2021/05/01 14:31:31;;;;;;;6.90;6.30;;;17.00;35.20;;;;;;10433367;22;20317;-73
2021/05/01 14:36:34;;;;;;;7.50;6.80;;;17.00;35.60;;;;;;10422116;28;20588;-72
2021/05/01 14:41:40;;;;;;;8.03;7.33;;;16.90;35.90;;;;;;10428138;28;20217;-70
2021/05/01 14:46:43;;;;;;;8.83;8.13;;;16.90;36.40;;;;;;10432325;28;20328;-73
2021/05/01 14:51:55;;;;;;;10.33;9.33;;;16.80;36.00;;;;;;10424080;28;20322;-72
2021/05/01 14:57:04;;;;;;;9.60;8.80;;;16.80;36.70;;;;;;10425698;28;20304;-72
2021/05/01 15:02:23;;;;;;;11.07;10.07;;;16.70;37.00;;;;;;10430860;28;20217;-72
2021/05/01 15:07:29;;;;;;;12.73;11.63;;;16.60;37.40;;;;;;10430637;28;20316;-72
2021/05/01 15:12:31;;;;;;;11.10;10.10;;;16.50;37.00;;;;;;10423181;28;20320;-72
2021/05/01 15:17:41;;;;;;;13.33;12.17;;;16.40;36.80;;;;;;10455955;23;20307;-73
2021/05/01 15:22:44;;;;;;;13.60;12.40;;;16.40;37.80;;;;;;10503017;28;20227;-73
2021/05/01 15:27:46;;;;;;;13.63;12.43;;;16.40;36.70;;;;;;10502586;28;20216;-73
2021/05/01 15:32:50;;;;;;;13.73;12.50;;;16.30;36.80;;;;;;10503654;28;20310;-72
2021/05/01 15:37:54;;;;;;;13.93;12.60;;;16.30;36.80;;;;;;10509054;28;20224;-73
2021/05/01 15:42:57;;;;;;;14.40;13.10;;;16.30;37.10;;;;;;10500366;28;20350;-73
2021/05/01 15:47:59;;;;;;;14.53;13.23;;;16.20;36.90;;;;;;10520042;28;20316;-73
2021/05/01 15:53:04;;;;;;;14.37;13.17;;;16.10;37.10;;;;;;10515352;28;20220;-72
2021/05/01 15:58:08;;;;;;;13.57;12.37;;;16.10;37.60;;;;;;10511270;28;20224;-72
2021/05/01 16:03:12;;;;;;;13.87;12.67;;;16.00;37.40;;;;;;10516619;28;20289;-75
2021/05/01 16:08:16;;;;;;;15.00;13.63;;;15.90;37.30;;;;;;10506910;28;20787;-73
2021/05/01 16:13:18;;;;;;;14.80;13.50;;;15.90;37.70;;;;;;10500788;28;20315;-73
2021/05/01 16:18:20;;;;;;;14.97;13.57;;;15.90;37.60;;;;;;10504434;28;20680;-73
2021/05/01 16:23:24;;;;;;;15.47;13.73;;;15.80;37.70;;;;;;10514582;28;20254;-72
2021/05/01 16:28:26;;;;;;;14.40;13.10;;;15.70;38.00;;;;;;10518095;28;20227;-73
2021/05/01 16:33:28;;;;;;;15.10;13.70;;;15.70;37.70;;;;;;10525879;28;20231;-72
2021/05/01 16:38:31;;;;;;;16.50;14.90;;;15.60;38.00;;;;;;10516782;28;20259;-72
2021/05/01 16:43:33;;;;;;;17.30;15.77;;;15.60;38.30;;;;;;10524338;28;20247;-72
2021/05/01 16:48:38;;;;;;;19.27;17.47;;;15.50;37.90;;;;;;10515753;28;20225;-73
2021/05/01 16:53:41;;;;;;;22.93;20.77;;;15.50;38.10;;;;;;10518420;28;20232;-72
2021/05/01 16:58:43;;;;;;;20.13;18.23;;;15.40;38.60;;;;;;10520414;28;20326;-72
2021/05/01 17:03:46;;;;;;;19.40;17.70;;;15.40;38.30;;;;;;10519625;28;20220;-72
2021/05/01 17:08:49;;;;;;;16.90;15.40;;;15.40;38.60;;;;;;10515763;28;20248;-72
2021/05/01 17:13:51;;;;;;;15.33;14.03;;;15.30;38.80;;;;;;10527421;28;20252;-72
2021/05/01 17:18:53;;;;;;;14.93;13.63;;;15.30;38.60;;;;;;10521870;28;20223;-72
2021/05/01 17:23:58;;;;;;;15.97;14.53;;;15.30;38.80;;;;;;10518987;28;20219;-72
2021/05/01 17:29:00;;;;;;;16.10;14.60;;;15.10;39.40;;;;;;10510092;28;20220;-72
2021/05/01 17:34:03;;;;;;;18.13;16.53;;;15.00;38.70;;;;;;10510162;28;20633;-72
2021/05/01 17:39:06;;;;;;;16.03;14.53;;;15.00;38.90;;;;;;10508653;28;20307;-72
2021/05/01 17:44:09;;;;;;;16.37;14.87;;;15.00;39.60;;;;;;10513123;28;20228;-72
2021/05/01 17:49:11;;;;;;;15.50;14.00;;;14.90;39.20;;;;;;10516913;28;20219;-76
2021/05/01 17:54:16;;;;;;;16.20;14.70;;;14.80;39.30;;;;;;10509731;28;20745;-72
2021/05/01 17:59:18;;;;;;;16.20;14.80;;;14.70;39.90;;;;;;10516243;28;20227;-72
2021/05/01 18:04:20;;;;;;;15.47;14.07;;;14.60;39.70;;;;;;10517118;28;20311;-72
2021/05/01 18:09:23;;;;;;;16.80;15.20;;;14.40;40.20;;;;;;10507343;28;20236;-72
2021/05/01 18:14:26;;;;;;;15.17;13.77;;;14.20;41.30;;;;;;10511094;28;20324;-72
2021/05/01 18:19:28;;;;;;;16.43;14.93;;;14.10;40.80;;;;;;10509366;28;20251;-73
2021/05/01 18:24:31;;;;;;;16.67;15.13;;;14.00;41.10;;;;;;10502783;28;20330;-72
2021/05/01 18:29:38;;;;;;;15.13;13.83;;;13.90;42.00;;;;;;10509939;28;20253;-71
2021/05/01 18:34:40;;;;;;;15.27;13.87;;;13.90;41.70;;;;;;10504432;28;20731;-71
2021/05/01 18:39:43;;;;;;;15.87;14.47;;;13.80;41.60;;;;;;10509567;28;20800;-74
2021/05/01 18:44:46;;;;;;;15.67;14.17;;;13.80;42.90;;;;;;10506756;28;20339;-72
2021/05/01 18:49:48;;;;;;;15.30;13.90;;;13.70;42.50;;;;;;10513151;28;20224;-73
2021/05/01 18:54:52;;;;;;;15.13;13.73;;;13.60;42.70;;;;;;10516977;28;20231;-73
2021/05/01 18:59:54;;;;;;;15.43;14.03;;;13.60;43.10;;;;;;10523089;28;20235;-73
2021/05/01 19:04:56;;;;;;;15.50;14.10;;;13.60;42.60;;;;;;10508249;28;20212;-73
2021/05/01 19:09:59;;;;;;;14.63;13.33;;;13.60;43.20;;;;;;10511342;28;20778;-72
2021/05/01 19:15:02;;;;;;;13.80;12.50;;;13.60;43.10;;;;;;10518058;28;20252;-74
2021/05/01 19:20:06;;;;;;;12.57;11.47;;;13.70;42.70;;;;;;10519923;28;20228;-73
2021/05/01 19:25:17;;;;;;;13.97;12.77;;;13.70;43.20;;;;;;10515500;28;20231;-73
2021/05/01 19:30:20;;;;;;;13.87;12.67;;;13.70;43.20;;;;;;10513171;28;20263;-74
2021/05/01 19:35:26;;;;;;;13.23;12.03;;;13.70;42.50;;;;;;10508087;28;20318;-73
2021/05/01 19:40:30;;;;;;;12.80;11.63;;;13.70;42.30;;;;;;10510992;28;21300;-73
2021/05/01 19:45:35;;;;;;;12.43;11.33;;;13.80;42.70;;;;;;10512204;28;20341;-72
2021/05/01 19:50:37;;;;;;;13.03;11.73;;;13.70;42.20;;;;;;10512410;28;20299;-73
2021/05/01 19:55:42;;;;;;;12.50;11.30;;;13.70;42.50;;;;;;10516992;28;20231;-73
2021/05/01 20:00:44;;;;;;;12.70;11.50;;;13.70;43.10;;;;;;10517010;28;20288;-73
2021/05/01 20:05:48;;;;;;;11.37;10.37;;;13.70;42.50;;;;;;10515020;28;20219;-73
2021/05/01 20:10:52;;;;;;;12.07;10.97;;;13.70;42.60;;;;;;10518531;28;20256;-73
2021/05/01 20:15:56;;;;;;;12.10;10.90;;;13.60;43.10;;;;;;10520208;28;20243;-75
2021/05/01 20:20:59;;;;;;;11.53;10.47;;;13.60;43.00;;;;;;10515627;28;20231;-73
2021/05/01 20:26:02;;;;;;;10.57;9.67;;;13.50;43.00;;;;;;10522725;28;20298;-75
2021/05/01 20:31:05;;;;;;;11.20;10.10;;;13.50;43.80;;;;;;10520186;28;20277;-73
2021/05/01 20:36:07;;;;;;;9.07;8.27;;;13.40;42.90;;;;;;10522672;28;20718;-73
2021/05/01 20:41:10;;;;;;;9.47;8.63;;;13.40;42.90;;;;;;10520012;28;20232;-75
2021/05/01 20:46:13;;;;;;;9.03;8.23;;;13.30;43.60;;;;;;10515601;28;20314;-74
2021/05/01 20:51:18;;;;;;;8.27;7.50;;;13.30;43.10;;;;;;10515081;28;20215;-75
2021/05/01 20:56:22;;;;;;;8.40;7.70;;;13.30;43.40;;;;;;10527716;28;20232;-74
2021/05/01 21:01:24;;;;;;;8.60;7.80;;;13.30;44.10;;;;;;10515771;28;20293;-75
2021/05/01 21:06:27;;;;;;;8.40;7.70;;;13.20;43.50;;;;;;10527472;28;20284;-74
2021/05/01 21:11:30;;;;;;;7.70;7.00;;;13.20;44.00;;;;;;10524346;28;20643;-73
2021/05/01 21:16:33;;;;;;;7.30;6.70;;;13.10;44.40;;;;;;10519497;28;20282;-73
2021/05/01 21:21:35;;;;;;;6.60;6.10;;;13.10;44.30;;;;;;10519039;28;20224;-73
2021/05/01 21:26:39;;;;;;;6.37;5.87;;;13.00;43.90;;;;;;10515185;28;20219;-74
2021/05/01 21:31:42;;;;;;;7.23;6.60;;;13.00;44.60;;;;;;10514217;28;20224;-73
2021/05/01 21:36:46;;;;;;;7.03;6.43;;;13.00;44.40;;;;;;10520062;28;20293;-73
2021/05/01 21:41:49;;;;;;;6.80;6.20;;;12.90;44.70;;;;;;10522757;28;20270;-73
2021/05/01 21:46:52;;;;;;;6.23;5.73;;;12.90;45.00;;;;;;10521540;28;20762;-73
2021/05/01 21:51:58;;;;;;;5.93;5.50;;;12.90;44.70;;;;;;10513550;28;20319;-73
2021/05/01 21:57:01;;;;;;;5.60;5.20;;;12.90;44.70;;;;;;10513225;28;20646;-74
2021/05/01 22:02:04;;;;;;;5.30;4.90;;;12.80;45.20;;;;;;10519521;28;20369;-73
2021/05/01 22:07:09;;;;;;;5.70;5.30;;;12.80;45.00;;;;;;10517218;28;20671;-73
2021/05/01 22:12:13;;;;;;;6.43;5.93;;;12.70;44.90;;;;;;10512114;28;20306;-73
2021/05/01 22:17:24;;;;;;;6.17;5.67;;;12.70;45.30;;;;;;10526744;28;20298;-72
2021/05/01 22:22:30;;;;;;;6.97;6.47;;;12.60;44.80;;;;;;10522921;28;20236;-75
2021/05/01 22:27:33;;;;;;;6.73;6.23;;;12.60;44.80;;;;;;10509454;28;20307;-74
2021/05/01 22:32:35;;;;;;;7.17;6.60;;;12.50;45.00;;;;;;10519547;28;20266;-73
2021/05/01 22:37:41;;;;;;;7.03;6.43;;;12.50;44.60;;;;;;10516037;28;20220;-72
2021/05/01 22:42:45;;;;;;;7.23;6.70;;;12.40;44.80;;;;;;10514342;28;20574;-72
2021/05/01 22:47:48;;;;;;;7.23;6.63;;;12.30;45.30;;;;;;10508209;28;20256;-73
2021/05/01 22:52:51;;;;;;;6.50;6.00;;;12.30;44.90;;;;;;10505812;28;20322;-72
2021/05/01 22:57:55;;;;;;;7.00;6.40;;;12.30;44.90;;;;;;10514663;28;20224;-73
2021/05/01 23:02:57;;;;;;;6.90;6.30;;;12.20;45.50;;;;;;10515502;28;20321;-74
2021/05/01 23:07:59;;;;;;;6.50;6.00;;;12.10;45.10;;;;;;10514884;28;20220;-73
2021/05/01 23:13:03;;;;;;;7.17;6.57;;;12.10;44.90;;;;;;10525152;28;21149;-73
2021/05/01 23:18:07;;;;;;;6.67;6.17;;;12.10;45.60;;;;;;10515447;28;20300;-72
2021/05/01 23:23:12;;;;;;;6.90;6.30;;;12.00;45.70;;;;;;10514677;28;20227;-72
2021/05/01 23:28:16;;;;;;;6.37;5.87;;;11.90;46.10;;;;;;10508788;28;20679;-72
2021/05/01 23:33:18;;;;;;;6.40;5.90;;;11.90;45.90;;;;;;10514015;28;20216;-74
2021/05/01 23:38:21;;;;;;;6.83;6.33;;;11.80;45.50;;;;;;10507986;28;20313;-72
2021/05/01 23:43:24;;;;;;;7.00;6.50;;;11.80;45.50;;;;;;10499680;28;20232;-72
2021/05/01 23:48:28;;;;;;;7.40;6.70;;;11.80;45.90;;;;;;10514334;28;20319;-72
2021/05/01 23:53:30;;;;;;;7.37;6.80;;;11.80;46.00;;;;;;10509245;28;20256;-75
2021/05/01 23:58:33;;;;;;;6.93;6.43;;;11.80;45.50;;;;;;10514963;28;20600;-72
